createdAt,value
2023-01-27T00:01:23.398Z,12.40
2023-01-27T00:03:51.894Z,14.50
2023-01-27T00:06:19.868Z,11.93
2023-01-27T00:08:47.469Z,12.87
2023-01-27T00:11:33.950Z,11.77
2023-01-27T00:14:01.873Z,12.97
2023-01-27T00:16:29.931Z,13.07
2023-01-27T00:18:57.647Z,12.13
2023-01-27T00:21:44.325Z,11.73
2023-01-27T00:24:33.349Z,15.07
2023-01-27T00:27:01.251Z,10.80
2023-01-27T00:29:29.594Z,9.97
2023-01-27T00:32:15.999Z,12.63
2023-01-27T00:34:43.625Z,11.57
2023-01-27T00:37:11.382Z,11.00
2023-01-27T00:39:39.630Z,11.77
2023-01-27T00:42:07.910Z,13.73
2023-01-27T00:44:36.228Z,13.20
2023-01-27T00:47:04.321Z,10.57
2023-01-27T00:49:32.521Z,11.07
2023-01-27T00:52:00.511Z,11.30
2023-01-27T00:54:28.647Z,11.47
2023-01-27T00:56:56.658Z,14.33
2023-01-27T00:59:24.276Z,13.60
2023-01-27T01:01:52.799Z,13.57
2023-01-27T01:04:20.994Z,12.67
2023-01-27T01:06:49.022Z,10.07
2023-01-27T01:09:17.310Z,11.50
2023-01-27T01:11:44.885Z,13.47
2023-01-27T01:14:13.046Z,14.23
2023-01-27T01:16:41.181Z,13.30
2023-01-27T01:19:09.264Z,13.13
2023-01-27T01:21:40.062Z,9.97
2023-01-27T01:24:09.118Z,11.87
2023-01-27T01:26:37.390Z,12.87
2023-01-27T01:29:05.104Z,11.63
2023-01-27T01:31:33.234Z,12.80
2023-01-27T01:34:01.237Z,12.07
2023-01-27T01:36:29.353Z,13.03
2023-01-27T01:38:59.166Z,11.77
2023-01-27T01:41:28.917Z,11.20
2023-01-27T01:43:56.726Z,11.47
2023-01-27T01:46:24.977Z,12.63
2023-01-27T01:48:57.050Z,13.03
2023-01-27T01:51:39.443Z,12.23
2023-01-27T01:54:15.530Z,10.77
2023-01-27T01:57:01.501Z,13.80
2023-01-27T01:59:40.179Z,14.77
2023-01-27T02:02:12.506Z,14.30
2023-01-27T02:04:43.191Z,14.87
2023-01-27T02:07:14.042Z,18.90
2023-01-27T02:09:42.109Z,11.57
2023-01-27T02:12:09.943Z,13.77
2023-01-27T02:14:38.051Z,11.87
2023-01-27T02:17:05.509Z,15.20
2023-01-27T02:19:35.985Z,12.63
2023-01-27T02:22:03.506Z,13.57
2023-01-27T02:24:33.415Z,13.53
2023-01-27T02:27:01.527Z,15.33
2023-01-27T02:29:29.092Z,11.17
2023-01-27T02:31:57.125Z,12.50
2023-01-27T02:34:30.227Z,12.67
2023-01-27T02:36:59.452Z,13.40
2023-01-27T02:39:28.851Z,15.13
2023-01-27T02:41:56.967Z,11.87
2023-01-27T02:44:25.084Z,13.63
2023-01-27T02:46:53.195Z,13.23
2023-01-27T02:49:20.935Z,11.43
2023-01-27T02:51:48.912Z,13.07
2023-01-27T02:54:19.852Z,14.47
2023-01-27T02:56:47.837Z,13.43
2023-01-27T02:59:15.957Z,13.70
2023-01-27T03:01:44.213Z,11.27
2023-01-27T03:04:12.124Z,14.80
2023-01-27T03:06:40.454Z,9.87
2023-01-27T03:09:08.585Z,13.90
2023-01-27T03:11:54.447Z,13.30
2023-01-27T03:14:22.689Z,12.03
2023-01-27T03:17:09.849Z,12.80
2023-01-27T03:19:37.924Z,11.38
2023-01-27T03:22:06.056Z,12.57
2023-01-27T03:24:33.940Z,13.80
2023-01-27T03:27:02.048Z,12.70
2023-01-27T03:29:48.080Z,13.53
2023-01-27T03:32:16.431Z,14.07
2023-01-27T03:34:44.364Z,12.87
2023-01-27T03:37:31.445Z,11.13
2023-01-27T03:40:18.253Z,11.75
2023-01-27T03:43:05.032Z,11.70
2023-01-27T03:45:51.299Z,12.53
2023-01-27T03:48:21.526Z,14.77
2023-01-27T03:50:53.287Z,12.50
2023-01-27T03:53:21.483Z,13.93
2023-01-27T03:55:49.198Z,13.83
2023-01-27T03:58:26.005Z,13.10
2023-01-27T04:00:55.875Z,13.35
2023-01-27T04:03:42.793Z,12.97
2023-01-27T04:06:31.225Z,10.55
2023-01-27T04:08:59.076Z,11.80
2023-01-27T04:11:45.098Z,11.90
2023-01-27T04:14:13.702Z,13.47
2023-01-27T04:16:41.845Z,12.73
2023-01-27T04:19:16.318Z,10.87
2023-01-27T04:21:43.987Z,13.27
2023-01-27T04:24:16.855Z,12.27
2023-01-27T04:26:45.228Z,11.47
2023-01-27T04:29:13.341Z,13.40
2023-01-27T04:31:42.578Z,11.93
2023-01-27T04:34:11.483Z,11.23
2023-01-27T04:36:39.435Z,11.70
2023-01-27T04:39:07.988Z,11.70
2023-01-27T04:41:35.514Z,11.87
2023-01-27T04:44:03.601Z,11.40
2023-01-27T04:46:31.953Z,13.73
2023-01-27T04:48:59.230Z,11.83
2023-01-27T04:51:27.409Z,11.60
2023-01-27T04:53:56.137Z,14.00
2023-01-27T04:56:52.350Z,14.43
2023-01-27T04:59:20.490Z,10.97
2023-01-27T05:01:48.298Z,13.73
2023-01-27T05:04:16.402Z,12.27
2023-01-27T05:06:44.865Z,14.53
2023-01-27T05:09:32.404Z,13.47
2023-01-27T05:12:00.474Z,12.95
2023-01-27T05:14:28.144Z,12.30
2023-01-27T05:16:56.709Z,13.53
2023-01-27T05:19:25.050Z,12.43
2023-01-27T05:21:53.275Z,14.80
2023-01-27T05:24:21.045Z,13.77
2023-01-27T05:26:48.783Z,15.83
2023-01-27T05:29:16.854Z,17.23
2023-01-27T05:31:44.517Z,19.93
2023-01-27T05:34:14.637Z,19.23
2023-01-27T05:36:42.440Z,17.60
2023-01-27T05:39:11.770Z,21.63
2023-01-27T05:41:40.028Z,20.40
2023-01-27T05:44:08.205Z,18.67
2023-01-27T05:46:38.982Z,16.00
2023-01-27T05:49:07.294Z,14.30
2023-01-27T05:51:38.620Z,15.20
2023-01-27T05:54:06.257Z,16.43
2023-01-27T05:56:34.481Z,15.43
2023-01-27T05:59:02.680Z,15.00
2023-01-27T06:01:32.625Z,12.93
2023-01-27T06:04:00.828Z,13.10
2023-01-27T06:06:29.542Z,12.37
2023-01-27T06:08:57.777Z,12.40
2023-01-27T06:11:25.102Z,11.87
2023-01-27T06:13:52.750Z,11.63
2023-01-27T06:16:21.693Z,13.47
2023-01-27T06:19:01.659Z,12.03
2023-01-27T06:21:29.676Z,14.23
2023-01-27T06:23:58.659Z,13.57
2023-01-27T06:26:26.783Z,12.40
2023-01-27T06:28:55.551Z,13.90
2023-01-27T06:31:23.888Z,13.87
2023-01-27T06:33:51.838Z,13.77
2023-01-27T06:36:20.832Z,16.40
2023-01-27T06:38:50.207Z,13.17
2023-01-27T06:41:19.031Z,13.83
2023-01-27T06:43:47.465Z,13.67
2023-01-27T06:46:16.365Z,12.27
2023-01-27T06:48:45.138Z,12.50
2023-01-27T06:51:13.877Z,14.67
2023-01-27T06:53:43.435Z,10.80
2023-01-27T06:56:11.475Z,14.73
2023-01-27T06:58:40.116Z,11.97
2023-01-27T07:01:08.476Z,13.03
2023-01-27T07:03:37.657Z,11.93
2023-01-27T07:06:07.390Z,12.60
2023-01-27T07:08:35.700Z,16.10
2023-01-27T07:11:07.508Z,12.03
2023-01-27T07:13:36.465Z,14.47
2023-01-27T07:16:06.166Z,13.90
2023-01-27T07:18:42.922Z,13.60
2023-01-27T07:21:11.166Z,14.30
2023-01-27T07:23:39.431Z,12.37
2023-01-27T07:26:23.164Z,14.37
2023-01-27T07:28:56.678Z,14.10
2023-01-27T07:31:25.104Z,12.07
2023-01-27T07:33:54.305Z,16.67
2023-01-27T07:36:23.273Z,10.73
2023-01-27T07:38:51.834Z,14.13
2023-01-27T07:41:20.742Z,13.23
2023-01-27T07:43:51.421Z,12.47
2023-01-27T07:46:21.344Z,12.40
2023-01-27T07:48:49.925Z,12.20
2023-01-27T07:51:19.176Z,13.03
2023-01-27T07:53:47.742Z,14.80
2023-01-27T07:56:15.449Z,12.97
2023-01-27T07:58:43.932Z,11.20
2023-01-27T08:01:13.031Z,13.23
2023-01-27T08:03:43.100Z,9.50
2023-01-27T08:06:13.362Z,13.07
2023-01-27T08:08:42.047Z,12.67
2023-01-27T08:11:12.195Z,10.97
2023-01-27T08:13:40.518Z,12.50
2023-01-27T08:16:11.598Z,11.87
2023-01-27T08:18:40.352Z,15.30
2023-01-27T08:21:10.906Z,9.97
2023-01-27T08:23:38.808Z,13.03
2023-01-27T08:26:08.710Z,11.77
2023-01-27T08:28:36.983Z,10.60
2023-01-27T08:31:17.549Z,13.07
2023-01-27T08:33:52.511Z,11.77
2023-01-27T08:36:21.230Z,12.10
2023-01-27T08:38:51.501Z,11.90
2023-01-27T08:41:22.226Z,11.27
2023-01-27T08:43:49.892Z,10.20
2023-01-27T08:46:17.924Z,10.83
2023-01-27T08:48:46.148Z,9.93
2023-01-27T08:51:13.942Z,10.37
2023-01-27T08:53:41.656Z,10.37
2023-01-27T08:56:11.610Z,9.73
2023-01-27T08:58:39.623Z,13.20
2023-01-27T09:01:07.457Z,12.87
2023-01-27T09:03:35.559Z,12.50
2023-01-27T09:06:03.386Z,10.63
2023-01-27T09:08:31.583Z,11.23
2023-01-27T09:10:59.209Z,13.70
2023-01-27T09:13:28.541Z,12.73
2023-01-27T09:15:56.517Z,11.60
2023-01-27T09:18:26.899Z,10.63
2023-01-27T09:20:55.282Z,13.17
2023-01-27T09:23:23.034Z,11.80
2023-01-27T09:25:51.519Z,11.83
2023-01-27T09:28:19.634Z,11.33
2023-01-27T09:30:47.592Z,9.53
2023-01-27T09:33:15.581Z,10.43
2023-01-27T09:35:51.032Z,9.90
2023-01-27T09:38:19.922Z,13.17
2023-01-27T09:40:53.303Z,8.13
2023-01-27T09:43:41.014Z,10.27
2023-01-27T09:46:35.971Z,13.17
2023-01-27T09:49:21.832Z,8.03
2023-01-27T09:51:55.241Z,7.10
2023-01-27T09:54:33.850Z,7.43
2023-01-27T09:57:19.086Z,10.63
2023-01-27T09:59:54.847Z,8.17
2023-01-27T10:02:30.898Z,8.37
2023-01-27T10:05:17.320Z,12.73
2023-01-27T10:07:47.718Z,7.30
2023-01-27T10:10:39.340Z,6.50
2023-01-27T10:13:17.156Z,6.67
2023-01-27T10:15:48.469Z,7.00
2023-01-27T10:18:36.570Z,9.87
2023-01-27T10:21:28.883Z,10.87
2023-01-27T10:24:33.012Z,9.87
2023-01-27T10:27:08.463Z,11.13
2023-01-27T10:29:52.059Z,10.83
2023-01-27T10:33:06.329Z,8.77
2023-01-27T10:35:42.881Z,6.80
2023-01-27T10:38:31.178Z,5.85
2023-01-27T10:41:02.495Z,11.90
2023-01-27T10:43:52.059Z,8.77
2023-01-27T10:46:34.454Z,7.67
2023-01-27T10:49:25.452Z,5.73
2023-01-27T10:51:55.976Z,7.07
2023-01-27T10:54:36.966Z,10.57
2023-01-27T10:57:10.478Z,9.87
2023-01-27T11:00:00.779Z,8.27
2023-01-27T11:02:43.726Z,8.50
2023-01-27T11:05:14.056Z,9.40
2023-01-27T11:08:06.537Z,9.27
2023-01-27T11:11:02.029Z,9.03
2023-01-27T11:13:30.765Z,7.53
2023-01-27T11:15:58.569Z,8.47
2023-01-27T11:18:28.837Z,7.57
2023-01-27T11:21:12.151Z,8.07
2023-01-27T11:23:41.017Z,7.10
2023-01-27T11:26:31.115Z,6.57
2023-01-27T11:29:16.378Z,8.90
2023-01-27T11:32:05.038Z,6.83
2023-01-27T11:34:46.655Z,7.40
2023-01-27T11:37:29.148Z,9.67
2023-01-27T11:40:17.473Z,8.43
2023-01-27T11:42:44.697Z,8.23
2023-01-27T11:45:17.756Z,9.30
2023-01-27T11:47:44.709Z,8.20
2023-01-27T11:50:17.315Z,7.60
2023-01-27T11:52:46.484Z,8.80
2023-01-27T11:55:27.707Z,7.53
2023-01-27T11:57:57.900Z,11.03
2023-01-27T12:00:38.749Z,8.87
2023-01-27T12:03:10.299Z,11.20
2023-01-27T12:05:41.803Z,8.07
2023-01-27T12:08:12.371Z,11.30
2023-01-27T12:10:42.378Z,7.23
2023-01-27T12:13:21.273Z,18.07
2023-01-27T12:16:00.160Z,7.87
2023-01-27T12:18:29.563Z,12.10
2023-01-27T12:21:02.362Z,11.93
2023-01-27T12:23:37.811Z,7.57
2023-01-27T12:26:07.405Z,9.57
2023-01-27T12:28:39.207Z,8.67
2023-01-27T12:31:33.869Z,22.00
2023-01-27T12:34:00.618Z,8.07
2023-01-27T12:36:30.249Z,7.97
2023-01-27T12:39:00.864Z,7.33
2023-01-27T12:41:29.666Z,8.20
2023-01-27T12:44:10.084Z,9.60
2023-01-27T12:46:37.956Z,7.90
2023-01-27T12:49:15.006Z,7.97
2023-01-27T12:51:45.668Z,8.90
2023-01-27T12:54:24.623Z,17.23
2023-01-27T12:56:52.125Z,7.90
2023-01-27T12:59:21.454Z,11.77
2023-01-27T13:01:58.509Z,8.40
2023-01-27T13:04:27.204Z,7.47
2023-01-27T13:07:04.196Z,10.20
2023-01-27T13:09:50.268Z,8.77
2023-01-27T13:12:20.655Z,8.77
2023-01-27T13:14:51.952Z,8.27
2023-01-27T13:17:53.206Z,9.60
2023-01-27T13:20:43.510Z,8.27
2023-01-27T13:23:29.111Z,7.10
2023-01-27T13:26:05.254Z,8.27
2023-01-27T13:28:52.257Z,11.07
2023-01-27T13:31:44.161Z,8.17
2023-01-27T13:34:16.782Z,9.27
2023-01-27T13:37:06.860Z,7.37
2023-01-27T13:40:02.321Z,9.20
2023-01-27T13:42:49.409Z,7.80
2023-01-27T13:45:36.850Z,7.63
2023-01-27T13:51:14.221Z,11.03
2023-01-27T13:53:47.754Z,8.17
2023-01-27T13:56:21.000Z,8.57
2023-01-27T13:59:22.623Z,10.47
2023-01-27T14:02:08.000Z,9.70
2023-01-27T14:05:19.343Z,7.13
2023-01-27T14:07:55.138Z,10.37
2023-01-27T14:10:24.034Z,10.60
2023-01-27T14:29:03.581Z,9.37
2023-01-27T14:31:51.049Z,7.70
2023-01-27T14:34:27.418Z,8.20
2023-01-27T14:37:30.929Z,10.10
2023-01-27T14:40:13.235Z,9.20
2023-01-27T14:42:56.342Z,8.60
2023-01-27T14:45:40.632Z,10.27
2023-01-27T14:48:26.292Z,8.10
2023-01-27T14:51:45.637Z,9.50
2023-01-27T14:54:40.810Z,9.63
2023-01-27T14:57:26.050Z,9.43
2023-01-27T15:00:03.253Z,9.47
2023-01-27T15:02:45.045Z,9.57
2023-01-27T15:05:22.116Z,10.43
2023-01-27T15:08:07.895Z,9.82
2023-01-27T15:10:36.841Z,9.97
2023-01-27T15:13:06.407Z,10.03
2023-01-27T15:16:00.974Z,11.87
2023-01-27T15:18:54.470Z,11.00
2023-01-27T15:21:46.557Z,9.53
2023-01-27T15:24:34.371Z,9.30
2023-01-27T15:27:02.952Z,10.23
2023-01-27T15:29:31.005Z,9.23
2023-01-27T15:32:21.328Z,15.83
2023-01-27T15:35:21.972Z,9.93
2023-01-27T15:38:10.273Z,12.27
2023-01-27T15:40:56.092Z,10.07
2023-01-27T15:43:25.465Z,13.43
2023-01-27T15:45:56.008Z,11.73
2023-01-27T15:48:28.547Z,13.63
2023-01-27T15:50:59.793Z,14.00
2023-01-27T15:53:39.634Z,15.93
2023-01-27T15:56:13.994Z,9.90
2023-01-27T15:58:57.069Z,24.27
2023-01-27T16:01:30.358Z,37.67
2023-01-27T16:04:15.651Z,47.20
2023-01-27T16:07:02.547Z,34.70
2023-01-27T16:09:40.581Z,22.88
2023-01-27T16:12:43.624Z,19.43
2023-01-27T16:15:30.856Z,13.10
2023-01-27T16:17:59.139Z,10.98
2023-01-27T16:20:32.147Z,11.90
2023-01-27T16:23:16.653Z,16.33
2023-01-27T16:25:57.675Z,15.50
2023-01-27T16:28:27.080Z,13.57
2023-01-27T16:31:11.615Z,15.30
2023-01-27T16:33:39.996Z,13.47
2023-01-27T16:36:26.230Z,27.20
2023-01-27T16:38:53.668Z,20.87
2023-01-27T16:41:29.744Z,18.97
2023-01-27T16:44:03.632Z,15.88
2023-01-27T16:46:38.008Z,18.13
2023-01-27T16:49:38.232Z,20.83
2023-01-27T16:52:06.314Z,19.53
2023-01-27T16:54:38.632Z,19.73
2023-01-27T16:57:06.830Z,25.23
2023-01-27T16:59:36.266Z,27.93
2023-01-27T17:02:05.578Z,24.73
2023-01-27T17:04:33.935Z,28.10
2023-01-27T17:07:13.464Z,35.83
2023-01-27T17:09:41.923Z,39.97
2023-01-27T17:12:34.736Z,36.03
2023-01-27T17:15:15.565Z,30.07
2023-01-27T17:17:42.868Z,27.60
2023-01-27T17:20:10.517Z,28.57
2023-01-27T17:22:39.141Z,28.63
2023-01-27T17:25:12.571Z,28.87
2023-01-27T17:27:40.897Z,27.47
2023-01-27T17:30:39.833Z,25.33
2023-01-27T17:33:08.121Z,26.93
2023-01-27T17:35:55.499Z,29.40
2023-01-27T17:38:24.867Z,20.38
2023-01-27T17:40:55.896Z,28.80
2023-01-27T17:43:36.227Z,24.40
2023-01-27T17:46:09.892Z,25.20
2023-01-27T17:48:41.650Z,25.43
2023-01-27T17:51:13.506Z,22.23
2023-01-27T17:53:41.831Z,25.93
2023-01-27T17:56:21.765Z,25.43
2023-01-27T17:58:52.739Z,25.37
2023-01-27T18:01:19.897Z,24.63
2023-01-27T18:03:51.970Z,36.90
2023-01-27T18:06:19.952Z,46.13
2023-01-27T18:08:55.147Z,48.13
2023-01-27T18:11:31.768Z,48.10
2023-01-27T18:14:01.962Z,52.28
2023-01-27T18:16:29.985Z,47.53
2023-01-27T18:19:25.711Z,37.33
2023-01-27T18:22:12.565Z,35.03
2023-01-27T18:24:40.436Z,35.17
2023-01-27T18:27:21.223Z,33.67
2023-01-27T18:30:00.506Z,39.07
2023-01-27T18:32:37.901Z,30.63
2023-01-27T18:35:28.869Z,31.53
2023-01-27T18:38:19.489Z,30.47
2023-01-27T18:40:47.635Z,34.73
2023-01-27T18:43:15.592Z,32.30
2023-01-27T18:45:47.285Z,32.47
2023-01-27T18:48:16.500Z,28.33
2023-01-27T18:50:45.979Z,24.00
2023-01-27T18:53:20.576Z,25.63
2023-01-27T18:55:48.346Z,24.93
2023-01-27T18:58:18.130Z,23.80
2023-01-27T19:00:52.813Z,25.83
2023-01-27T19:03:23.853Z,26.03
2023-01-27T19:05:54.606Z,27.80
2023-01-27T19:08:23.455Z,24.10
2023-01-27T19:10:51.065Z,20.30
2023-01-27T19:13:19.310Z,23.30
2023-01-27T19:15:55.207Z,27.43
2023-01-27T19:18:27.179Z,21.47
2023-01-27T19:20:54.401Z,27.33
2023-01-27T19:23:22.571Z,28.60
2023-01-27T19:25:50.945Z,27.83
2023-01-27T19:28:26.432Z,29.80
2023-01-27T19:30:54.501Z,28.83
2023-01-27T19:33:25.839Z,32.70
2023-01-27T19:35:55.493Z,30.00
2023-01-27T19:38:23.986Z,31.03
2023-01-27T19:40:51.770Z,29.77
2023-01-27T19:43:19.889Z,37.13
2023-01-27T19:45:48.288Z,32.10
2023-01-27T19:48:42.277Z,27.70
2023-01-27T19:51:11.057Z,32.37
2023-01-27T19:53:40.756Z,27.70
2023-01-27T19:56:18.128Z,32.30
2023-01-27T19:58:47.266Z,29.60
2023-01-27T20:01:15.046Z,29.90
2023-01-27T20:03:43.225Z,26.37
2023-01-27T20:06:27.259Z,28.53
2023-01-27T20:08:59.818Z,26.50
2023-01-27T20:11:40.423Z,25.27
2023-01-27T20:14:12.272Z,26.90
2023-01-27T20:16:40.281Z,28.73
2023-01-27T20:19:08.031Z,28.00
2023-01-27T20:21:36.017Z,26.77
2023-01-27T20:24:05.737Z,25.13
2023-01-27T20:26:33.497Z,25.47
2023-01-27T20:29:01.265Z,27.40
2023-01-27T20:31:29.176Z,27.87
2023-01-27T20:33:59.943Z,27.70
2023-01-27T20:36:27.532Z,28.37
2023-01-27T20:38:55.610Z,24.77
2023-01-27T20:41:23.925Z,27.20
2023-01-27T20:44:20.559Z,24.70
2023-01-27T20:46:48.506Z,25.53
2023-01-27T20:49:16.462Z,22.77
2023-01-27T20:51:44.474Z,22.20
2023-01-27T20:54:13.233Z,22.23
2023-01-27T20:56:41.211Z,22.53
2023-01-27T20:59:09.445Z,31.97
2023-01-27T21:01:37.549Z,20.03
2023-01-27T21:04:05.535Z,21.60
2023-01-27T21:06:34.524Z,22.30
2023-01-27T21:09:02.137Z,23.33
2023-01-27T21:11:30.057Z,23.43
2023-01-27T21:13:57.709Z,27.10
2023-01-27T21:16:27.976Z,23.40
2023-01-27T21:18:55.956Z,26.20
2023-01-27T21:21:47.435Z,23.10
2023-01-27T21:24:15.559Z,26.03
2023-01-27T21:26:43.576Z,22.77
2023-01-27T21:29:11.904Z,25.43
2023-01-27T21:31:40.721Z,22.97
2023-01-27T21:34:10.673Z,23.40
2023-01-27T21:36:38.874Z,22.90
2023-01-27T21:39:06.590Z,22.97
2023-01-27T21:41:52.582Z,24.60
2023-01-27T21:44:46.135Z,30.00
2023-01-27T21:47:15.747Z,29.83
2023-01-27T21:50:03.056Z,27.47
2023-01-27T21:52:39.307Z,23.63
2023-01-27T21:55:11.011Z,26.30
2023-01-27T21:57:41.686Z,24.40
2023-01-27T22:00:10.072Z,24.10
2023-01-27T22:02:38.779Z,23.93
2023-01-27T22:05:07.653Z,27.60
2023-01-27T22:07:38.275Z,25.10
2023-01-27T22:10:09.121Z,23.47
2023-01-27T22:12:37.275Z,23.77
2023-01-27T22:15:09.379Z,22.53
2023-01-27T22:17:37.074Z,23.47
2023-01-27T22:20:05.617Z,27.40
2023-01-27T22:22:33.807Z,23.33
2023-01-27T22:25:01.913Z,20.30
2023-01-27T22:27:30.189Z,20.03
2023-01-27T22:29:58.093Z,22.70
2023-01-27T22:32:26.313Z,18.50
2023-01-27T22:34:54.808Z,22.67
2023-01-27T22:37:22.939Z,20.07
2023-01-27T22:39:50.939Z,20.13
2023-01-27T22:42:21.983Z,18.53
2023-01-27T22:44:49.645Z,20.33
2023-01-27T22:47:17.660Z,20.27
2023-01-27T22:49:46.202Z,17.47
2023-01-27T22:52:14.337Z,20.03
2023-01-27T22:54:42.362Z,20.30
2023-01-27T22:57:10.635Z,18.73
2023-01-27T22:59:45.719Z,17.13
2023-01-27T23:02:13.675Z,18.00
2023-01-27T23:04:41.864Z,18.57
2023-01-27T23:07:09.840Z,19.20
2023-01-27T23:09:37.862Z,17.00
2023-01-27T23:12:06.445Z,15.80
2023-01-27T23:14:34.478Z,16.50
2023-01-27T23:17:02.455Z,14.80
2023-01-27T23:19:30.083Z,16.03
2023-01-27T23:21:57.729Z,15.57
2023-01-27T23:24:25.999Z,18.57
2023-01-27T23:26:58.104Z,15.60
2023-01-27T23:29:29.239Z,16.70
2023-01-27T23:31:57.594Z,16.63
2023-01-27T23:34:25.665Z,14.97
2023-01-27T23:36:53.776Z,16.60
2023-01-27T23:39:21.200Z,13.77
2023-01-27T23:41:49.129Z,15.70
2023-01-27T23:44:17.805Z,15.67
2023-01-27T23:46:45.721Z,16.47
2023-01-27T23:49:14.197Z,16.60
2023-01-27T23:51:41.851Z,17.53
2023-01-27T23:54:09.864Z,14.73
2023-01-27T23:56:37.626Z,17.63
2023-01-27T23:59:05.689Z,17.63
